Time;durP1;ratioP1;P1;durP2;ratioP2;P2;SDS_P1;SDS_P2;PMS_P1;PMS_P2;Temp;Humidity;BMP_temperature;BMP_pressure;BME280_temperature;BME280_humidity;BME280_pressure;Samples;Min_cycle;Max_cycle;Signal;HPM_P1;HPM_P2
2020/12/24 00:00:15;;;;;;;17.35;7.97;;;7.90;99.90;;;;;;5048303;28;20120;-67
2020/12/24 00:02:41;;;;;;;17.92;7.75;;;7.80;99.90;;;;;;5051739;28;20789;-67
2020/12/24 00:05:14;;;;;;;16.48;7.35;;;7.80;99.90;;;;;;5049058;28;20049;-67
2020/12/24 00:07:41;;;;;;;15.05;6.95;;;7.80;99.90;;;;;;5027091;28;20055;-68
2020/12/24 00:10:09;;;;;;;20.15;7.63;;;7.80;99.90;;;;;;5044235;28;20155;-68
2020/12/24 00:12:37;;;;;;;15.63;7.28;;;7.80;99.90;;;;;;5040744;28;20060;-67
2020/12/24 00:15:05;;;;;;;15.85;6.45;;;7.80;99.90;;;;;;5043849;28;20558;-67
2020/12/24 00:17:32;;;;;;;16.10;6.53;;;7.70;99.90;;;;;;5035760;28;20083;-67
2020/12/24 00:19:58;;;;;;;18.13;8.10;;;7.70;99.90;;;;;;5046043;28;20049;-67
2020/12/24 00:22:25;;;;;;;17.60;6.65;;;7.70;99.90;;;;;;5033553;28;20512;-67
2020/12/24 00:24:51;;;;;;;15.43;6.38;;;7.80;99.90;;;;;;5047368;28;20041;-67
2020/12/24 00:27:18;;;;;;;17.35;6.93;;;7.80;99.90;;;;;;5048294;28;20053;-67
2020/12/24 00:29:44;;;;;;;13.20;5.90;;;7.70;99.90;;;;;;5048128;28;20044;-67
2020/12/24 00:32:11;;;;;;;15.90;6.05;;;7.70;99.90;;;;;;5047181;28;20049;-67
2020/12/24 00:34:38;;;;;;;14.38;6.07;;;7.70;99.90;;;;;;5042716;28;20033;-67
2020/12/24 00:37:04;;;;;;;13.27;6.15;;;7.70;99.90;;;;;;5040121;28;20068;-68
2020/12/24 00:39:31;;;;;;;19.00;7.70;;;7.70;99.90;;;;;;5046118;28;20041;-67
2020/12/24 00:41:58;;;;;;;31.17;11.00;;;7.70;99.90;;;;;;5024651;28;20041;-67
2020/12/24 00:44:24;;;;;;;30.50;10.93;;;7.70;99.90;;;;;;5046535;28;20056;-67
2020/12/24 00:46:52;;;;;;;29.42;9.50;;;7.70;99.90;;;;;;5032684;28;20111;-67
2020/12/24 00:49:20;;;;;;;21.02;8.02;;;7.80;99.90;;;;;;5030427;28;20046;-67
2020/12/24 00:51:46;;;;;;;18.60;7.95;;;7.80;99.90;;;;;;5037966;28;20041;-67
2020/12/24 00:54:13;;;;;;;20.73;8.52;;;7.70;99.90;;;;;;5033130;28;20527;-67
2020/12/24 00:56:40;;;;;;;14.63;7.57;;;7.80;99.90;;;;;;5038222;28;20128;-67
2020/12/24 00:59:13;;;;;;;16.02;6.95;;;7.80;99.90;;;;;;5021530;28;20084;-67
2020/12/24 01:01:40;;;;;;;18.85;7.63;;;7.80;99.90;;;;;;5018079;28;20531;-67
2020/12/24 01:04:06;;;;;;;22.35;8.95;;;7.80;99.90;;;;;;5042111;28;20581;-67
2020/12/24 01:06:33;;;;;;;23.02;9.18;;;7.80;99.90;;;;;;5048749;28;20065;-67
2020/12/24 01:09:00;;;;;;;21.52;8.63;;;7.70;99.90;;;;;;5042742;28;20479;-67
2020/12/24 01:11:28;;;;;;;17.90;7.35;;;7.70;99.90;;;;;;5045589;28;20041;-67
2020/12/24 01:13:55;;;;;;;18.52;7.78;;;7.60;99.90;;;;;;5030751;28;20041;-67
2020/12/24 01:16:22;;;;;;;17.88;7.13;;;7.70;99.90;;;;;;5023493;28;20087;-67
2020/12/24 01:18:57;;;;;;;17.67;6.93;;;7.70;99.90;;;;;;5037932;28;20052;-68
2020/12/24 01:21:23;;;;;;;16.83;6.70;;;7.60;99.90;;;;;;5047482;28;20049;-67
2020/12/24 01:23:50;;;;;;;14.10;6.80;;;7.60;99.90;;;;;;5045872;28;20061;-67
2020/12/24 01:26:16;;;;;;;16.95;7.55;;;7.50;99.90;;;;;;5040066;28;20590;-67
2020/12/24 01:28:43;;;;;;;23.20;8.82;;;7.50;99.90;;;;;;5034783;28;20052;-67
2020/12/24 01:31:09;;;;;;;18.75;8.30;;;7.50;99.90;;;;;;5041977;28;20090;-67
2020/12/24 01:33:36;;;;;;;21.98;9.70;;;7.50;99.90;;;;;;5038169;28;20110;-67
2020/12/24 01:36:03;;;;;;;17.95;9.05;;;7.40;99.90;;;;;;5046861;28;20144;-67
2020/12/24 01:38:30;;;;;;;20.50;8.35;;;7.50;99.90;;;;;;5023907;28;20682;-67
2020/12/24 01:41:01;;;;;;;20.95;8.57;;;7.40;99.90;;;;;;5044070;28;20099;-67
2020/12/24 01:43:27;;;;;;;21.13;9.20;;;7.40;99.90;;;;;;5047130;28;20404;-67
2020/12/24 01:45:57;;;;;;;20.15;8.82;;;7.40;99.90;;;;;;5045840;28;20787;-67
2020/12/24 01:48:27;;;;;;;21.15;8.20;;;7.40;99.90;;;;;;5026974;28;20048;-67
2020/12/24 01:50:54;;;;;;;20.42;8.20;;;7.40;99.90;;;;;;5050507;28;20057;-68
2020/12/24 01:53:23;;;;;;;16.20;7.35;;;7.30;99.90;;;;;;5041721;28;20508;-67
2020/12/24 01:55:50;;;;;;;19.05;7.95;;;7.30;99.90;;;;;;5045265;28;20063;-67
2020/12/24 01:58:18;;;;;;;19.38;7.82;;;7.30;99.90;;;;;;5025224;28;20037;-67
2020/12/24 02:00:46;;;;;;;19.17;8.60;;;7.30;99.90;;;;;;5040953;28;20133;-67
2020/12/24 02:03:17;;;;;;;18.35;7.78;;;7.30;99.90;;;;;;5025247;28;20128;-67
2020/12/24 02:05:44;;;;;;;18.23;8.45;;;7.20;99.90;;;;;;5042588;28;20420;-67
2020/12/24 02:08:11;;;;;;;18.95;8.00;;;7.20;99.90;;;;;;5044989;28;20053;-67
2020/12/24 02:10:38;;;;;;;23.23;8.63;;;7.20;99.90;;;;;;5049781;28;20043;-67
2020/12/24 02:13:04;;;;;;;15.07;6.97;;;7.20;99.90;;;;;;5042283;28;20037;-67
2020/12/24 02:15:32;;;;;;;17.65;8.07;;;7.20;99.90;;;;;;5038741;28;20051;-67
2020/12/24 02:17:58;;;;;;;18.63;7.95;;;7.20;99.90;;;;;;5037369;28;20061;-67
2020/12/24 02:20:25;;;;;;;19.52;7.95;;;7.20;99.90;;;;;;5034666;28;20393;-67
2020/12/24 02:22:51;;;;;;;18.50;8.10;;;7.20;99.90;;;;;;5025563;28;20065;-67
2020/12/24 02:25:18;;;;;;;17.83;7.97;;;7.20;99.90;;;;;;5043725;28;20044;-68
2020/12/24 02:27:45;;;;;;;17.05;7.90;;;7.20;99.90;;;;;;5043440;28;20143;-67
2020/12/24 02:30:11;;;;;;;17.17;7.65;;;7.20;99.90;;;;;;5045963;28;20107;-67
2020/12/24 02:32:38;;;;;;;20.95;8.23;;;7.20;99.90;;;;;;5046357;28;20056;-67
2020/12/24 02:35:05;;;;;;;23.30;8.48;;;7.20;99.90;;;;;;5046279;28;20041;-67
2020/12/24 02:37:32;;;;;;;18.70;7.93;;;7.20;99.90;;;;;;5042646;28;20216;-67
2020/12/24 02:39:58;;;;;;;20.05;8.40;;;7.20;99.90;;;;;;5043593;28;20114;-67
2020/12/24 02:42:25;;;;;;;20.02;7.30;;;7.30;99.90;;;;;;5022160;28;20053;-67
2020/12/24 02:44:51;;;;;;;16.33;6.72;;;7.30;99.90;;;;;;5044187;28;20052;-67
2020/12/24 02:47:18;;;;;;;13.77;5.80;;;7.20;99.90;;;;;;5047479;28;20086;-67
2020/12/24 02:49:56;;;;;;;15.15;5.95;;;7.20;99.90;;;;;;5059013;28;20044;-67
2020/12/24 02:52:24;;;;;;;14.18;6.25;;;7.20;99.90;;;;;;5043419;28;20051;-67
2020/12/24 02:54:51;;;;;;;13.43;6.15;;;7.20;99.90;;;;;;5040646;28;20069;-67
2020/12/24 02:57:18;;;;;;;15.30;5.35;;;7.30;99.90;;;;;;5040749;28;20033;-68
2020/12/24 03:00:08;;;;;;;13.02;6.07;;;7.30;99.90;;;;;;5034303;28;20052;-67
2020/12/24 03:02:36;;;;;;;11.05;5.32;;;7.30;99.90;;;;;;5043534;28;20116;-67
2020/12/24 03:05:03;;;;;;;16.35;6.13;;;7.30;99.90;;;;;;5055025;28;20071;-67
2020/12/24 03:07:30;;;;;;;14.57;6.05;;;7.30;99.90;;;;;;5046630;28;20055;-67
2020/12/24 03:09:56;;;;;;;13.55;4.97;;;7.40;99.90;;;;;;5050193;28;20064;-68
2020/12/24 03:12:24;;;;;;;11.77;4.68;;;7.40;99.90;;;;;;5046972;28;20048;-68
2020/12/24 03:14:52;;;;;;;13.20;5.82;;;7.40;99.90;;;;;;5047902;28;20550;-67
2020/12/24 03:17:20;;;;;;;11.73;4.18;;;7.40;99.90;;;;;;5052929;28;20040;-67
2020/12/24 03:19:47;;;;;;;9.60;3.88;;;7.40;99.90;;;;;;5053221;28;20045;-67
2020/12/24 03:22:14;;;;;;;9.38;4.38;;;7.40;99.90;;;;;;5051256;28;20052;-67
2020/12/24 03:24:41;;;;;;;8.02;3.42;;;7.40;99.90;;;;;;5046459;28;20052;-67
2020/12/24 03:27:07;;;;;;;8.68;3.50;;;7.50;99.90;;;;;;5049080;28;20045;-67
2020/12/24 03:29:34;;;;;;;8.13;3.22;;;7.50;99.90;;;;;;5042930;28;20504;-67
2020/12/24 03:32:01;;;;;;;8.52;3.25;;;7.50;99.90;;;;;;5047330;28;20052;-67
2020/12/24 03:34:27;;;;;;;8.00;3.30;;;7.50;99.90;;;;;;5043706;28;20037;-67
2020/12/24 03:36:54;;;;;;;8.70;3.75;;;7.50;99.90;;;;;;5041916;28;20102;-67
2020/12/24 03:39:20;;;;;;;8.50;3.00;;;7.50;99.90;;;;;;5040913;28;20053;-67
2020/12/24 03:41:47;;;;;;;8.68;3.33;;;7.60;99.90;;;;;;5033795;28;20098;-67
2020/12/24 03:44:14;;;;;;;12.45;3.55;;;7.50;99.90;;;;;;5041345;28;20048;-67
2020/12/24 03:46:40;;;;;;;9.77;3.60;;;7.50;99.90;;;;;;5056629;28;20424;-67
2020/12/24 03:49:07;;;;;;;8.43;3.10;;;7.50;99.90;;;;;;5053987;28;20049;-67
2020/12/24 03:51:33;;;;;;;8.82;2.95;;;7.60;99.90;;;;;;5046695;28;20056;-67
2020/12/24 03:53:59;;;;;;;12.10;3.03;;;7.50;99.90;;;;;;5047386;28;20057;-67
2020/12/24 03:56:26;;;;;;;7.15;3.15;;;7.50;99.90;;;;;;5041249;28;20044;-67
2020/12/24 03:58:53;;;;;;;10.00;3.10;;;7.60;99.90;;;;;;5046305;28;20045;-67
2020/12/24 04:01:19;;;;;;;9.77;4.10;;;7.60;99.90;;;;;;5048156;28;20049;-67
2020/12/24 04:03:45;;;;;;;10.15;4.18;;;7.60;99.90;;;;;;5064772;28;20060;-67
2020/12/24 04:06:12;;;;;;;9.80;4.10;;;7.60;99.90;;;;;;5044356;28;20057;-67
2020/12/24 04:08:39;;;;;;;11.10;3.90;;;7.60;99.90;;;;;;5049400;28;20044;-67
2020/12/24 04:11:05;;;;;;;8.48;3.88;;;7.50;99.90;;;;;;5051536;28;20045;-68
2020/12/24 04:13:31;;;;;;;8.60;3.83;;;7.50;99.90;;;;;;5042891;28;20037;-67
2020/12/24 04:15:58;;;;;;;9.20;3.35;;;7.50;99.90;;;;;;5042784;28;20094;-68
2020/12/24 04:18:24;;;;;;;8.88;3.15;;;7.50;99.90;;;;;;5044989;28;20135;-67
2020/12/24 04:20:57;;;;;;;11.32;3.95;;;7.60;99.90;;;;;;5044245;28;20481;-67
2020/12/24 04:23:24;;;;;;;8.02;2.85;;;7.50;99.90;;;;;;5032688;28;20484;-67
2020/12/24 04:25:50;;;;;;;8.68;3.20;;;7.50;99.90;;;;;;5045393;28;20056;-67
2020/12/24 04:28:17;;;;;;;8.05;3.10;;;7.50;99.90;;;;;;5046103;28;20098;-67
2020/12/24 04:30:44;;;;;;;8.20;3.00;;;7.50;99.90;;;;;;5045642;28;20049;-67
2020/12/24 04:33:11;;;;;;;8.02;3.58;;;7.50;99.90;;;;;;5046703;28;20045;-67
2020/12/24 04:35:38;;;;;;;6.28;2.65;;;7.50;99.90;;;;;;5031320;28;20455;-67
2020/12/24 04:38:06;;;;;;;6.43;2.72;;;7.50;99.90;;;;;;5030733;28;20037;-67
2020/12/24 04:40:36;;;;;;;8.50;3.15;;;7.50;99.90;;;;;;5043079;28;20037;-67
2020/12/24 04:43:04;;;;;;;7.05;2.85;;;7.40;99.90;;;;;;5039050;28;20094;-67
2020/12/24 04:45:34;;;;;;;7.63;2.90;;;7.40;99.90;;;;;;5044394;28;20050;-67
2020/12/24 04:48:01;;;;;;;8.73;3.53;;;7.40;99.90;;;;;;5044893;28;20052;-67
2020/12/24 04:50:29;;;;;;;6.80;3.25;;;7.40;99.90;;;;;;5039630;28;20043;-68
2020/12/24 04:52:57;;;;;;;8.63;3.60;;;7.40;99.90;;;;;;5035746;28;20092;-67
2020/12/24 04:55:24;;;;;;;8.35;3.33;;;7.40;99.90;;;;;;5039184;28;20048;-67
2020/12/24 04:57:50;;;;;;;7.90;3.25;;;7.40;99.90;;;;;;5044234;28;20045;-67
2020/12/24 05:00:18;;;;;;;9.50;3.55;;;7.40;99.90;;;;;;5036152;28;20052;-67
2020/12/24 05:02:59;;;;;;;7.32;2.95;;;7.40;99.90;;;;;;5037989;28;20629;-67
2020/12/24 05:05:25;;;;;;;7.72;2.75;;;7.40;99.90;;;;;;5037333;28;20044;-67
2020/12/24 05:07:52;;;;;;;9.20;3.45;;;7.40;99.90;;;;;;5045672;28;20486;-67
2020/12/24 05:10:18;;;;;;;7.28;3.15;;;7.40;99.90;;;;;;5049958;28;20044;-67
2020/12/24 05:12:45;;;;;;;9.88;3.88;;;7.30;99.90;;;;;;5048818;28;20435;-67
2020/12/24 05:15:26;;;;;;;9.15;4.05;;;7.30;99.90;;;;;;5041477;28;20049;-67
2020/12/24 05:17:53;;;;;;;6.80;3.28;;;7.20;99.90;;;;;;5043162;28;20087;-67
2020/12/24 05:20:19;;;;;;;7.13;3.53;;;7.30;99.90;;;;;;5041776;28;20048;-67
2020/12/24 05:22:46;;;;;;;8.30;3.75;;;7.20;99.90;;;;;;5042071;28;20111;-67
2020/12/24 05:25:19;;;;;;;10.68;3.75;;;7.20;99.90;;;;;;5044213;28;20041;-67
2020/12/24 05:27:56;;;;;;;9.68;3.85;;;7.20;99.90;;;;;;5046216;28;20045;-67
2020/12/24 05:30:27;;;;;;;5.80;3.00;;;7.30;99.90;;;;;;5040426;28;20488;-67
2020/12/24 05:32:54;;;;;;;8.70;3.22;;;7.30;99.90;;;;;;5044635;28;20067;-67
2020/12/24 05:35:24;;;;;;;7.80;3.40;;;7.20;99.90;;;;;;5043726;28;20041;-67
2020/12/24 05:37:55;;;;;;;9.48;3.15;;;7.20;99.90;;;;;;5047571;28;20115;-67
2020/12/24 05:40:29;;;;;;;6.32;3.25;;;7.20;99.90;;;;;;5048970;28;20064;-68
2020/12/24 05:43:01;;;;;;;10.75;3.75;;;7.30;99.90;;;;;;5043356;28;20053;-67
2020/12/24 05:45:29;;;;;;;7.07;3.30;;;7.30;99.90;;;;;;5041120;28;20047;-67
2020/12/24 05:48:13;;;;;;;8.38;3.30;;;7.30;99.90;;;;;;5029586;28;20048;-67
2020/12/24 05:50:42;;;;;;;8.40;4.82;;;7.30;99.90;;;;;;5040536;28;20072;-67
2020/12/24 05:53:10;;;;;;;10.48;5.05;;;7.30;99.90;;;;;;5044520;28;20107;-67
2020/12/24 05:55:39;;;;;;;10.70;4.75;;;7.30;99.90;;;;;;5040620;28;20400;-67
2020/12/24 05:58:10;;;;;;;9.55;4.07;;;7.30;99.90;;;;;;5047900;28;20060;-67
2020/12/24 06:00:36;;;;;;;8.25;3.50;;;7.30;99.90;;;;;;5047078;28;20051;-67
2020/12/24 06:03:23;;;;;;;9.70;3.70;;;7.30;99.90;;;;;;5029305;28;20049;-67
2020/12/24 06:05:55;;;;;;;7.35;3.33;;;7.30;99.90;;;;;;5049989;28;20033;-67
2020/12/24 06:08:24;;;;;;;10.05;3.65;;;7.30;99.90;;;;;;5036478;28;20057;-67
2020/12/24 06:11:07;;;;;;;7.68;3.33;;;7.30;99.90;;;;;;5035300;28;20041;-67
2020/12/24 06:13:38;;;;;;;7.95;4.05;;;7.30;99.90;;;;;;5057080;28;20045;-67
2020/12/24 06:16:08;;;;;;;7.88;4.35;;;7.30;99.90;;;;;;5042077;28;20037;-67
2020/12/24 06:18:37;;;;;;;10.98;4.00;;;7.30;99.90;;;;;;5046721;28;20041;-67
2020/12/24 06:21:13;;;;;;;10.23;3.60;;;7.20;99.90;;;;;;5040729;28;20037;-67
2020/12/24 06:23:44;;;;;;;7.93;3.78;;;7.30;99.90;;;;;;5036743;28;20057;-67
2020/12/24 06:26:16;;;;;;;9.18;4.20;;;7.20;99.90;;;;;;5027917;28;20459;-67
2020/12/24 06:28:43;;;;;;;9.05;3.90;;;7.20;99.90;;;;;;5035544;28;20049;-67
2020/12/24 06:31:12;;;;;;;8.15;3.33;;;7.10;99.90;;;;;;5033680;28;20042;-67
2020/12/24 06:33:38;;;;;;;8.48;3.97;;;7.10;99.90;;;;;;5037677;28;20041;-68
2020/12/24 06:36:05;;;;;;;12.27;4.32;;;7.10;99.90;;;;;;5039991;28;20083;-68
2020/12/24 06:38:46;;;;;;;10.50;4.38;;;7.10;99.90;;;;;;5046961;28;20045;-67
2020/12/24 06:41:27;;;;;;;9.90;4.15;;;7.10;99.90;;;;;;5052869;28;20051;-68
2020/12/24 06:43:54;;;;;;;12.13;4.60;;;7.10;99.90;;;;;;5040863;28;20061;-67
2020/12/24 06:46:21;;;;;;;9.77;4.45;;;7.10;99.90;;;;;;5045535;28;20152;-67
2020/12/24 06:49:14;;;;;;;10.27;4.03;;;7.10;99.90;;;;;;5049039;28;20571;-67
2020/12/24 06:51:49;;;;;;;11.53;4.87;;;7.10;99.90;;;;;;5049124;28;20061;-67
2020/12/24 06:54:26;;;;;;;11.63;4.82;;;7.10;99.90;;;;;;5049285;28;20286;-67
2020/12/24 06:57:38;;;;;;;12.57;5.75;;;7.10;99.90;;;;;;5040577;28;20037;-67
2020/12/24 07:00:18;;;;;;;13.88;6.22;;;7.10;99.90;;;;;;5043724;28;20057;-67
2020/12/24 07:02:46;;;;;;;16.35;7.30;;;7.20;99.90;;;;;;5047577;28;20041;-67
2020/12/24 07:05:41;;;;;;;16.58;7.25;;;7.20;99.90;;;;;;5040728;28;20446;-67
2020/12/24 07:08:09;;;;;;;13.13;5.90;;;7.20;99.90;;;;;;5027661;28;20510;-67
2020/12/24 07:10:49;;;;;;;14.15;7.07;;;7.30;99.90;;;;;;5043179;28;20045;-67
2020/12/24 07:13:38;;;;;;;13.98;5.88;;;7.30;99.90;;;;;;5046249;28;20104;-67
2020/12/24 07:16:07;;;;;;;16.25;7.25;;;7.40;99.90;;;;;;5050917;28;20136;-67
2020/12/24 07:18:38;;;;;;;19.80;9.52;;;7.40;99.90;;;;;;5050740;28;20100;-68
2020/12/24 07:21:10;;;;;;;17.95;9.07;;;7.40;99.90;;;;;;5051938;28;20041;-67
2020/12/24 07:23:38;;;;;;;18.55;9.30;;;7.40;99.90;;;;;;5050302;28;20041;-67
2020/12/24 07:26:09;;;;;;;16.83;8.30;;;7.50;99.90;;;;;;5029647;28;20623;-67
2020/12/24 07:28:39;;;;;;;15.63;6.22;;;7.50;99.90;;;;;;5048738;28;20057;-68
2020/12/24 07:31:07;;;;;;;12.63;5.50;;;7.60;99.90;;;;;;5032957;28;20045;-67
2020/12/24 07:33:44;;;;;;;13.75;5.50;;;7.60;99.90;;;;;;5037415;28;20108;-65
2020/12/24 07:36:11;;;;;;;15.15;6.32;;;7.70;99.90;;;;;;5046236;28;20485;-65
2020/12/24 07:38:38;;;;;;;14.38;5.85;;;7.70;99.90;;;;;;5038840;28;20531;-65
2020/12/24 07:41:13;;;;;;;21.73;8.02;;;7.80;99.90;;;;;;5049573;28;20357;-65
2020/12/24 07:43:40;;;;;;;47.13;14.48;;;7.90;99.90;;;;;;5048390;28;20056;-65
2020/12/24 07:46:07;;;;;;;39.85;13.88;;;8.00;99.90;;;;;;5042224;28;20708;-65
2020/12/24 07:48:34;;;;;;;30.15;9.70;;;8.00;99.90;;;;;;5042103;28;20072;-65
2020/12/24 07:51:07;;;;;;;26.25;9.20;;;8.10;99.90;;;;;;5042490;28;20543;-65
2020/12/24 07:53:34;;;;;;;19.33;6.60;;;8.10;99.90;;;;;;5043706;28;20484;-65
2020/12/24 07:56:05;;;;;;;12.52;5.15;;;8.20;99.90;;;;;;5046638;28;20049;-65
2020/12/24 07:58:32;;;;;;;13.13;5.20;;;8.20;99.90;;;;;;5061859;28;20569;-65
2020/12/24 08:01:03;;;;;;;12.55;5.05;;;8.20;99.90;;;;;;5038619;28;20040;-65
2020/12/24 08:03:29;;;;;;;9.65;4.50;;;8.20;99.90;;;;;;5020671;28;20135;-65
2020/12/24 08:06:06;;;;;;;12.30;5.32;;;8.20;99.90;;;;;;5048589;28;20073;-65
2020/12/24 08:08:36;;;;;;;11.95;5.55;;;8.30;99.90;;;;;;5041695;28;20038;-65
2020/12/24 08:11:09;;;;;;;14.40;6.60;;;8.30;99.90;;;;;;5045273;28;20581;-65
2020/12/24 08:13:35;;;;;;;11.93;5.82;;;8.30;99.90;;;;;;5038907;28;20053;-65
2020/12/24 08:16:04;;;;;;;11.68;5.28;;;8.30;99.90;;;;;;5043495;28;20041;-65
2020/12/24 08:18:40;;;;;;;12.63;5.80;;;8.40;99.90;;;;;;5027815;28;20045;-65
2020/12/24 08:21:20;;;;;;;12.05;4.93;;;8.40;99.90;;;;;;5044404;28;20056;-65
2020/12/24 08:23:53;;;;;;;12.68;5.25;;;8.50;99.90;;;;;;5041065;28;20124;-65
2020/12/24 08:26:25;;;;;;;13.77;5.63;;;8.50;99.90;;;;;;5045945;28;20047;-65
2020/12/24 08:28:57;;;;;;;13.25;5.80;;;8.50;99.90;;;;;;5048129;28;20052;-65
2020/12/24 08:31:28;;;;;;;11.85;5.65;;;8.50;99.90;;;;;;5048360;28;20566;-65
2020/12/24 08:33:58;;;;;;;13.35;6.15;;;8.50;99.90;;;;;;5039285;28;20758;-65
2020/12/24 08:36:27;;;;;;;13.85;5.60;;;8.50;99.90;;;;;;5047990;28;20045;-65
2020/12/24 08:39:06;;;;;;;13.27;6.00;;;8.60;99.90;;;;;;5048832;28;20049;-65
2020/12/24 08:41:36;;;;;;;13.85;6.20;;;8.60;99.90;;;;;;5043031;28;20045;-65
2020/12/24 08:44:06;;;;;;;12.45;6.10;;;8.60;99.90;;;;;;5044210;28;20541;-66
2020/12/24 08:46:34;;;;;;;14.25;7.20;;;8.60;99.90;;;;;;5040764;28;20044;-65
2020/12/24 08:49:41;;;;;;;14.70;5.35;;;8.70;99.90;;;;;;5047411;28;20045;-65
2020/12/24 08:52:12;;;;;;;16.70;7.32;;;8.70;99.90;;;;;;4964016;28;20039;-64
2020/12/24 08:54:56;;;;;;;12.93;6.03;;;8.80;99.90;;;;;;4950325;28;20524;-64
2020/12/24 08:57:23;;;;;;;15.32;7.30;;;8.80;99.90;;;;;;4942019;28;20043;-66
2020/12/24 08:59:57;;;;;;;11.73;5.82;;;8.80;99.90;;;;;;4945370;28;20142;-66
2020/12/24 09:02:34;;;;;;;14.25;6.38;;;8.90;99.90;;;;;;4950483;28;20455;-66
2020/12/24 09:05:05;;;;;;;19.35;8.70;;;8.90;99.90;;;;;;4950171;28;20142;-66
2020/12/24 09:07:39;;;;;;;17.48;8.45;;;8.90;99.90;;;;;;4968341;28;20438;-65
2020/12/24 09:10:11;;;;;;;19.42;9.15;;;9.00;99.90;;;;;;4947511;28;20082;-66
2020/12/24 09:12:41;;;;;;;27.92;11.52;;;9.10;99.90;;;;;;4960393;28;20082;-66
2020/12/24 09:15:10;;;;;;;41.60;15.60;;;9.20;99.90;;;;;;4963336;28;20049;-65
2020/12/24 09:17:48;;;;;;;54.22;18.42;;;9.20;99.90;;;;;;4947635;28;20219;-65
2020/12/24 09:20:24;;;;;;;41.35;14.52;;;9.30;99.90;;;;;;4949257;28;20066;-65
2020/12/24 09:22:55;;;;;;;20.85;8.63;;;9.30;99.90;;;;;;4962005;28;20094;-65
2020/12/24 09:25:44;;;;;;;12.05;6.28;;;9.30;99.90;;;;;;4967769;28;20049;-65
2020/12/24 09:28:24;;;;;;;23.77;10.48;;;9.30;99.90;;;;;;5054805;28;20048;-65
2020/12/24 09:30:53;;;;;;;22.95;11.40;;;9.30;99.90;;;;;;5026252;28;20056;-65
2020/12/24 09:33:20;;;;;;;23.05;12.00;;;9.30;99.90;;;;;;5041085;28;20041;-65
2020/12/24 09:35:49;;;;;;;31.77;15.73;;;9.30;99.90;;;;;;5049054;28;20045;-66
2020/12/24 09:38:16;;;;;;;16.42;7.95;;;9.30;99.90;;;;;;5041802;28;20398;-66
2020/12/24 09:40:43;;;;;;;22.77;10.00;;;9.30;99.90;;;;;;5046065;28;20505;-66
2020/12/24 09:43:10;;;;;;;18.70;8.32;;;9.30;99.90;;;;;;5047284;28;20041;-66
2020/12/24 09:45:38;;;;;;;17.63;8.63;;;9.30;99.90;;;;;;5041453;28;20104;-65
2020/12/24 09:48:05;;;;;;;19.08;8.05;;;9.40;99.90;;;;;;5042381;28;20033;-66
2020/12/24 09:50:34;;;;;;;46.38;18.85;;;9.40;99.90;;;;;;5023548;28;20037;-65
2020/12/24 09:53:02;;;;;;;19.20;7.70;;;9.50;99.90;;;;;;5040036;28;20045;-66
2020/12/24 09:55:29;;;;;;;12.38;6.10;;;9.60;99.90;;;;;;5041818;28;20029;-65
2020/12/24 09:57:56;;;;;;;13.30;5.75;;;9.60;99.90;;;;;;5037737;28;20064;-65
2020/12/24 10:00:24;;;;;;;18.75;8.43;;;9.60;99.90;;;;;;5034995;28;20049;-65
2020/12/24 10:02:51;;;;;;;29.67;17.58;;;9.60;99.90;;;;;;5026418;28;20049;-65
2020/12/24 10:05:18;;;;;;;16.55;9.48;;;9.60;99.90;;;;;;5039378;28;20749;-65
2020/12/24 10:07:50;;;;;;;23.00;12.68;;;9.60;99.90;;;;;;5021193;28;20050;-65
2020/12/24 10:10:18;;;;;;;28.55;14.70;;;9.60;99.90;;;;;;5045047;28;20036;-66
2020/12/24 10:12:45;;;;;;;16.60;8.27;;;9.70;99.90;;;;;;5048369;28;20044;-66
2020/12/24 10:15:11;;;;;;;17.90;10.38;;;9.70;99.90;;;;;;5027371;28;20041;-66
2020/12/24 10:17:38;;;;;;;24.75;12.30;;;9.70;99.90;;;;;;5046656;28;20060;-66
2020/12/24 10:20:05;;;;;;;18.17;7.80;;;9.70;99.90;;;;;;5023152;28;20820;-65
2020/12/24 10:22:32;;;;;;;25.08;12.45;;;9.60;99.90;;;;;;5041574;28;20132;-66
2020/12/24 10:24:59;;;;;;;18.80;7.80;;;9.70;99.90;;;;;;5035317;28;20052;-66
2020/12/24 10:27:26;;;;;;;16.55;7.85;;;9.60;99.90;;;;;;5029463;28;20041;-66
2020/12/24 10:29:53;;;;;;;17.02;6.85;;;9.50;99.90;;;;;;5032462;28;20550;-66
2020/12/24 10:32:20;;;;;;;19.00;8.73;;;9.50;99.90;;;;;;5047133;28;20073;-66
2020/12/24 10:34:48;;;;;;;15.60;6.80;;;9.50;99.90;;;;;;5048301;28;20033;-66
2020/12/24 10:37:15;;;;;;;14.57;6.55;;;9.50;99.90;;;;;;5030472;28;20045;-66
2020/12/24 10:39:42;;;;;;;16.55;7.50;;;9.60;99.90;;;;;;5029167;28;20045;-66
2020/12/24 10:42:11;;;;;;;19.98;8.50;;;9.60;99.90;;;;;;5046438;28;20044;-66
2020/12/24 10:44:37;;;;;;;18.38;8.75;;;9.60;99.90;;;;;;5046827;28;20052;-66
2020/12/24 10:47:05;;;;;;;14.57;7.38;;;9.60;99.90;;;;;;5046112;28;20476;-66
2020/12/24 10:49:32;;;;;;;13.88;7.10;;;9.60;99.90;;;;;;5043590;28;20095;-66
2020/12/24 10:52:01;;;;;;;14.85;6.80;;;9.60;99.90;;;;;;5040647;28;20037;-66
2020/12/24 10:54:28;;;;;;;14.23;6.72;;;9.50;99.90;;;;;;5047173;28;20045;-66
2020/12/24 10:56:55;;;;;;;14.82;7.80;;;9.50;99.90;;;;;;5042701;28;20065;-66
2020/12/24 10:59:22;;;;;;;13.40;7.22;;;9.50;99.90;;;;;;5048750;28;20037;-66
2020/12/24 11:01:49;;;;;;;12.48;6.50;;;9.50;99.90;;;;;;5047986;28;20069;-66
2020/12/24 11:04:17;;;;;;;14.85;7.03;;;9.50;99.90;;;;;;5022020;28;20153;-66
2020/12/24 11:06:45;;;;;;;19.08;9.35;;;9.60;99.90;;;;;;5029895;28;20053;-66
2020/12/24 11:09:14;;;;;;;20.13;8.68;;;9.70;99.90;;;;;;5048510;28;20087;-66
2020/12/24 11:11:41;;;;;;;15.48;7.78;;;9.80;99.90;;;;;;5047458;28;20380;-66
2020/12/24 11:14:16;;;;;;;16.85;7.57;;;9.90;99.90;;;;;;5043050;28;20064;-66
2020/12/24 11:16:48;;;;;;;15.05;8.00;;;10.00;99.90;;;;;;5030489;28;20771;-66
2020/12/24 11:19:15;;;;;;;16.38;8.07;;;10.10;99.90;;;;;;5042926;28;20033;-66
2020/12/24 11:21:42;;;;;;;21.25;9.57;;;10.20;99.90;;;;;;5039931;28;20185;-66
2020/12/24 11:24:11;;;;;;;20.42;8.95;;;10.30;99.90;;;;;;5000825;28;20069;-66
2020/12/24 11:26:38;;;;;;;17.88;7.82;;;10.40;99.90;;;;;;5032833;28;20058;-66
2020/12/24 11:29:07;;;;;;;18.13;8.57;;;10.50;99.90;;;;;;5028830;28;20515;-66
2020/12/24 11:31:36;;;;;;;19.15;9.70;;;10.60;99.90;;;;;;5046962;28;20045;-67
2020/12/24 11:34:05;;;;;;;17.17;9.32;;;10.80;99.90;;;;;;5038318;28;20098;-66
2020/12/24 11:36:32;;;;;;;18.00;8.93;;;10.90;99.90;;;;;;5033038;28;20532;-66
2020/12/24 11:38:59;;;;;;;20.83;9.18;;;10.90;99.90;;;;;;5031722;28;20047;-66
2020/12/24 11:41:29;;;;;;;20.20;10.27;;;10.80;99.90;;;;;;5035115;28;20132;-66
2020/12/24 11:43:56;;;;;;;20.92;10.05;;;10.80;99.90;;;;;;5050257;28;20580;-66
2020/12/24 11:46:25;;;;;;;24.95;11.57;;;10.80;99.90;;;;;;5038776;28;20128;-66
2020/12/24 11:48:53;;;;;;;18.23;9.52;;;10.80;99.90;;;;;;5049197;28;20099;-66
2020/12/24 11:51:23;;;;;;;19.10;9.45;;;10.80;99.90;;;;;;5048045;28;20121;-66
2020/12/24 11:53:53;;;;;;;17.48;8.93;;;10.60;99.90;;;;;;5036982;28;20045;-66
2020/12/24 11:56:22;;;;;;;18.42;8.10;;;10.60;99.90;;;;;;5044924;28;20122;-66
2020/12/24 11:58:52;;;;;;;16.40;9.05;;;10.50;99.90;;;;;;5064749;28;20504;-66
2020/12/24 12:01:23;;;;;;;18.23;8.13;;;10.50;99.90;;;;;;5045254;28;20527;-66
2020/12/24 12:03:52;;;;;;;19.30;9.00;;;10.40;99.90;;;;;;5035426;28;20057;-66
2020/12/24 12:06:20;;;;;;;15.48;7.93;;;10.30;99.90;;;;;;5047129;28;20044;-66
2020/12/24 12:08:48;;;;;;;18.40;8.75;;;10.20;99.90;;;;;;5045547;28;20045;-66
2020/12/24 12:11:15;;;;;;;16.70;7.82;;;10.10;99.90;;;;;;5031216;28;20396;-65
2020/12/24 12:13:42;;;;;;;25.48;13.50;;;9.90;99.90;;;;;;5041505;28;20049;-66
2020/12/24 12:16:10;;;;;;;17.98;9.60;;;9.90;99.90;;;;;;5047993;28;20048;-66
2020/12/24 12:18:38;;;;;;;21.55;9.75;;;9.90;99.90;;;;;;5048754;28;20044;-66
2020/12/24 12:21:11;;;;;;;24.60;10.65;;;9.90;99.90;;;;;;5048500;28;20041;-66
2020/12/24 12:23:37;;;;;;;21.23;9.93;;;9.80;99.90;;;;;;5040151;28;20061;-66
2020/12/24 12:26:10;;;;;;;24.00;11.30;;;9.70;99.90;;;;;;5040553;28;20041;-66
2020/12/24 12:28:41;;;;;;;26.75;12.75;;;9.70;99.90;;;;;;5035112;28;20581;-66
2020/12/24 12:31:13;;;;;;;29.33;13.18;;;9.60;99.90;;;;;;5030881;28;20053;-66
2020/12/24 12:33:40;;;;;;;24.83;12.88;;;9.60;99.90;;;;;;5046953;28;20072;-66
2020/12/24 12:36:07;;;;;;;27.98;12.95;;;9.50;99.90;;;;;;5049348;28;20037;-66
2020/12/24 12:38:35;;;;;;;30.83;13.20;;;9.50;99.90;;;;;;5063744;28;20053;-66
2020/12/24 12:41:01;;;;;;;28.45;13.00;;;9.50;99.90;;;;;;5043620;28;20069;-66
2020/12/24 12:43:28;;;;;;;36.58;14.32;;;9.40;99.90;;;;;;5040993;28;20052;-66
2020/12/24 12:45:55;;;;;;;27.92;12.48;;;9.40;99.90;;;;;;5040095;28;20041;-66
2020/12/24 12:48:22;;;;;;;23.15;12.00;;;9.40;99.90;;;;;;5025299;28;20470;-66
2020/12/24 12:50:48;;;;;;;26.67;12.55;;;9.40;99.90;;;;;;5030386;28;20499;-66
2020/12/24 12:53:15;;;;;;;34.50;14.80;;;9.40;99.90;;;;;;5041046;28;20045;-66
2020/12/24 12:55:42;;;;;;;30.70;16.33;;;9.40;99.90;;;;;;5034177;28;20136;-66
2020/12/24 12:58:09;;;;;;;29.80;14.18;;;9.30;99.90;;;;;;5026191;28;20045;-66